Framfjord — V4LL2 — position and weather

sailwx.info

Track history (hours):
 
Tides and Currents Weather Stations Pressure Air Temp Water Temp Dewpoint Dewpoint Depression Visibility Wind Speed Wind Dir Waves Ship Positions

Framfjord

Last reported at 2014-Mar-22 14:33 UTC. Time now 2014-Jul-24 03:52 UTC.
Position N 61°29' E 004°59'.
Warning: this ship's position is months out of date.

; draft 2.7 m.

Type: Cargo ship. MMSI: 341156000.

Date/timePositionNaut miles runAvg speedWind from/ knotsBaromVisibWave heightAir tempDewpointWater temp
2014-Mar-22 14:33N 61°29' E 004°59'10 9.4
2014-Mar-22 13:32N 61°21' E 004°49'49 5.8
2014-Mar-22 05:07N 60°32' E 004°57'5 8.7
2014-Mar-22 04:32N 60°28' E 005°01'10 8.1
2014-Mar-22 03:17N 60°19' E 005°12'64 5.9
2014-Mar-21 16:24N 59°15' E 005°21'6 7.4
2014-Mar-21 15:33N 59°13' E 005°32'8 0.8
2014-Mar-21 05:25N 59°20' E 005°39'4 5.1
2014-Mar-21 04:33N 59°16' E 005°36'5 4.9
2014-Mar-21 03:33N 59°11' E 005°35'6 6.0
2014-Mar-21 02:33N 59°05' E 005°33'6 5.6
2014-Mar-21 01:33N 58°60' E 005°33'7 6.7
2014-Mar-21 00:34N 58°53' E 005°32'8 7.5
2014-Mar-20 23:33N 58°46' E 005°25'10 6.5
2014-Mar-20 22:04N 58°37' E 005°30'3 6.1
2014-Mar-20 21:33N 58°34' E 005°33'6 6.1
2014-Mar-20 20:34N 58°29' E 005°39'6 5.7
2014-Mar-20 19:33N 58°25' E 005°47'5 5.5
2014-Mar-20 18:34N 58°22' E 005°56'6 6.1
2014-Mar-20 17:33N 58°20' E 006°06'5 4.8
2014-Mar-20 16:32N 58°20' E 006°16'0 0.1
2014-Mar-20 15:31N 58°20' E 006°16'2 1.1
2014-Mar-20 13:33N 58°18' E 006°15'6 6.1
2014-Mar-20 12:33N 58°12' E 006°20'5 0.5
2014-Mar-20 01:10N 58°12' E 006°30'4 7.4
2014-Mar-20 00:33N 58°14' E 006°22'8 7.6
2014-Mar-19 23:34N 58°16' E 006°08'7 7.4
2014-Mar-19 22:33N 58°20' E 005°56'6 6.5
2014-Mar-19 21:34N 58°24' E 005°47'8 7.8
2014-Mar-19 20:32N 58°31' E 005°38'15 7.4
2014-Mar-19 18:29N 58°44' E 005°25'5 5.3
2014-Mar-19 17:33N 58°49' E 005°26'6 6.0
2014-Mar-19 16:34N 58°54' E 005°32'8 8.0
2014-Mar-19 15:34N 59°02' E 005°33'7 7.3
2014-Mar-19 14:33N 59°02' E 005°47'9 8.7
2014-Mar-19 13:34N 58°56' E 006°00'6 5.3
2014-Mar-19 12:29N 58°52' E 006°07'0 0.3
2014-Mar-19 11:32N 58°52' E 006°08'2 2.4
2014-Mar-19 10:33N 58°54' E 006°05'0 0.0
2014-Mar-19 09:33N 58°54' E 006°05'0 0.0
2014-Mar-19 08:33N 58°54' E 006°05'1 0.8
2014-Mar-19 07:33N 58°53' E 006°05'4 0.7
2014-Mar-19 02:20N 58°50' E 006°10'0 0.0
2014-Mar-18 23:04N 58°50' E 006°10'2 4.7
2014-Mar-18 22:33N 58°52' E 006°07'1515.1
2014-Mar-18 21:34N 59°05' E 005°52'4 3.8
2014-Mar-18 20:33N 59°09' E 005°53'1010.3
2014-Mar-18 19:33N 59°19' E 005°55'8 1.1
2014-Mar-18 12:32N 59°26' E 005°50'9 9.0
2014-Mar-18 11:33N 59°18' E 005°55'9 9.5
2014-Mar-18 10:33N 59°08' E 005°53'3 3.2
2014-Mar-18 09:33N 59°05' E 005°54'0 0.2
2014-Mar-18 08:33N 59°06' E 005°54'8 8.0
2014-Mar-18 07:33N 59°09' E 005°40'11 8.9
2014-Mar-18 06:21N 59°14' E 005°22'16 0.4
2014-Mar-16 13:33N 59°30' E 005°12'16 7.3
2014-Mar-16 11:20N 59°15' E 005°26'7 8.8
2014-Mar-16 10:33N 59°10' E 005°35'8 8.5
2014-Mar-16 09:34N 59°06' E 005°49'8 8.3
2014-Mar-16 08:34N 58°58' E 005°56'7 6.5
2014-Mar-16 07:33N 58°54' E 006°06'0 0.0
2014-Mar-16 06:33N 58°54' E 006°05'0 0.0
2014-Mar-16 05:33N 58°54' E 006°05'2 1.8
2014-Mar-16 04:33N 58°55' E 006°03'6 6.0
2014-Mar-16 03:33N 58°59' E 005°54'6 5.8
2014-Mar-16 02:33N 59°04' E 005°51'6 5.7
2014-Mar-16 01:33N 59°09' E 005°43'7 7.3
2014-Mar-16 00:33N 59°12' E 005°30'7 6.1
2014-Mar-15 23:22N 59°17' E 005°20'14 0.9
2014-Mar-15 07:18N 59°30' E 005°12'6 7.6
2014-Mar-15 06:33N 59°24' E 005°15'6 6.2
2014-Mar-15 05:33N 59°19' E 005°20'4 4.4
2014-Mar-15 04:33N 59°15' E 005°24'5 5.3
2014-Mar-15 03:33N 59°13' E 005°33'9 8.7
2014-Mar-15 02:33N 59°18' E 005°47'7 6.9
2014-Mar-15 01:33N 59°18' E 006°01'4 3.8
2014-Mar-15 00:26N 59°16' E 006°08'1 1.5
2014-Mar-14 23:33N 59°15' E 006°06'4 3.4
2014-Mar-14 22:31N 59°13' E 005°60'2 2.0
2014-Mar-14 21:31N 59°14' E 006°03'0 0.3
2014-Mar-14 20:33N 59°14' E 006°04'5 5.2
2014-Mar-14 19:33N 59°12' E 005°55'7 3.5
2014-Mar-14 17:32N 59°05' E 005°54'0 0.0
2014-Mar-14 16:32N 59°05' E 005°54'0 0.0
2014-Mar-14 15:34N 59°05' E 005°54'4 3.8
2014-Mar-14 14:34N 59°08' E 005°48'10 9.8
2014-Mar-14 13:33N 59°12' E 005°31'64 4.8
2014-Mar-14 00:13N 60°15' E 005°09'8 8.9
2014-Mar-13 23:20N 60°22' E 005°10'6 8.2
2014-Mar-13 22:33N 60°28' E 005°15'  
Track history (hours):
 
Tides and Currents Weather Stations Pressure Air Temp Water Temp Dewpoint Dewpoint Depression Visibility Wind Speed Wind Dir Waves Ship Positions

Framfjord

Last reported at 2014-Mar-22 14:33 UTC. Time now 2014-Jul-24 03:52 UTC.
Position N 61°29' E 004°59'.
Warning: this ship's position is months out of date.

; draft 2.7 m.

Type: Cargo ship. MMSI: 341156000.

Date/timePositionNaut miles runAvg speedWind from/ knotsBaromVisibWave heightAir tempDewpointWater temp
2014-Mar-22 14:33N 61°29' E 004°59'10 9.4
2014-Mar-22 13:32N 61°21' E 004°49'49 5.8
2014-Mar-22 05:07N 60°32' E 004°57'5 8.7
2014-Mar-22 04:32N 60°28' E 005°01'10 8.1
2014-Mar-22 03:17N 60°19' E 005°12'64 5.9
2014-Mar-21 16:24N 59°15' E 005°21'6 7.4
2014-Mar-21 15:33N 59°13' E 005°32'8 0.8
2014-Mar-21 05:25N 59°20' E 005°39'4 5.1
2014-Mar-21 04:33N 59°16' E 005°36'5 4.9
2014-Mar-21 03:33N 59°11' E 005°35'6 6.0
2014-Mar-21 02:33N 59°05' E 005°33'6 5.6
2014-Mar-21 01:33N 58°60' E 005°33'7 6.7
2014-Mar-21 00:34N 58°53' E 005°32'8 7.5
2014-Mar-20 23:33N 58°46' E 005°25'10 6.5
2014-Mar-20 22:04N 58°37' E 005°30'3 6.1
2014-Mar-20 21:33N 58°34' E 005°33'6 6.1
2014-Mar-20 20:34N 58°29' E 005°39'6 5.7
2014-Mar-20 19:33N 58°25' E 005°47'5 5.5
2014-Mar-20 18:34N 58°22' E 005°56'6 6.1
2014-Mar-20 17:33N 58°20' E 006°06'5 4.8
2014-Mar-20 16:32N 58°20' E 006°16'0 0.1
2014-Mar-20 15:31N 58°20' E 006°16'2 1.1
2014-Mar-20 13:33N 58°18' E 006°15'6 6.1
2014-Mar-20 12:33N 58°12' E 006°20'5 0.5
2014-Mar-20 01:10N 58°12' E 006°30'4 7.4
2014-Mar-20 00:33N 58°14' E 006°22'8 7.6
2014-Mar-19 23:34N 58°16' E 006°08'7 7.4
2014-Mar-19 22:33N 58°20' E 005°56'6 6.5
2014-Mar-19 21:34N 58°24' E 005°47'8 7.8
2014-Mar-19 20:32N 58°31' E 005°38'15 7.4
2014-Mar-19 18:29N 58°44' E 005°25'5 5.3
2014-Mar-19 17:33N 58°49' E 005°26'6 6.0
2014-Mar-19 16:34N 58°54' E 005°32'8 8.0
2014-Mar-19 15:34N 59°02' E 005°33'7 7.3
2014-Mar-19 14:33N 59°02' E 005°47'9 8.7
2014-Mar-19 13:34N 58°56' E 006°00'6 5.3
2014-Mar-19 12:29N 58°52' E 006°07'0 0.3
2014-Mar-19 11:32N 58°52' E 006°08'2 2.4
2014-Mar-19 10:33N 58°54' E 006°05'0 0.0
2014-Mar-19 09:33N 58°54' E 006°05'0 0.0
2014-Mar-19 08:33N 58°54' E 006°05'1 0.8
2014-Mar-19 07:33N 58°53' E 006°05'4 0.7
2014-Mar-19 02:20N 58°50' E 006°10'0 0.0
2014-Mar-18 23:04N 58°50' E 006°10'2 4.7
2014-Mar-18 22:33N 58°52' E 006°07'1515.1
2014-Mar-18 21:34N 59°05' E 005°52'4 3.8
2014-Mar-18 20:33N 59°09' E 005°53'1010.3
2014-Mar-18 19:33N 59°19' E 005°55'8 1.1
2014-Mar-18 12:32N 59°26' E 005°50'9 9.0
2014-Mar-18 11:33N 59°18' E 005°55'9 9.5
2014-Mar-18 10:33N 59°08' E 005°53'3 3.2
2014-Mar-18 09:33N 59°05' E 005°54'0 0.2
2014-Mar-18 08:33N 59°06' E 005°54'8 8.0
2014-Mar-18 07:33N 59°09' E 005°40'11 8.9
2014-Mar-18 06:21N 59°14' E 005°22'16 0.4
2014-Mar-16 13:33N 59°30' E 005°12'16 7.3
2014-Mar-16 11:20N 59°15' E 005°26'7 8.8
2014-Mar-16 10:33N 59°10' E 005°35'8 8.5
2014-Mar-16 09:34N 59°06' E 005°49'8 8.3
2014-Mar-16 08:34N 58°58' E 005°56'7 6.5
2014-Mar-16 07:33N 58°54' E 006°06'0 0.0
2014-Mar-16 06:33N 58°54' E 006°05'0 0.0
2014-Mar-16 05:33N 58°54' E 006°05'2 1.8
2014-Mar-16 04:33N 58°55' E 006°03'6 6.0
2014-Mar-16 03:33N 58°59' E 005°54'6 5.8
2014-Mar-16 02:33N 59°04' E 005°51'6 5.7
2014-Mar-16 01:33N 59°09' E 005°43'7 7.3
2014-Mar-16 00:33N 59°12' E 005°30'7 6.1
2014-Mar-15 23:22N 59°17' E 005°20'14 0.9
2014-Mar-15 07:18N 59°30' E 005°12'6 7.6
2014-Mar-15 06:33N 59°24' E 005°15'6 6.2
2014-Mar-15 05:33N 59°19' E 005°20'4 4.4
2014-Mar-15 04:33N 59°15' E 005°24'5 5.3
2014-Mar-15 03:33N 59°13' E 005°33'9 8.7
2014-Mar-15 02:33N 59°18' E 005°47'7 6.9
2014-Mar-15 01:33N 59°18' E 006°01'4 3.8
2014-Mar-15 00:26N 59°16' E 006°08'1 1.5
2014-Mar-14 23:33N 59°15' E 006°06'4 3.4
2014-Mar-14 22:31N 59°13' E 005°60'2 2.0
2014-Mar-14 21:31N 59°14' E 006°03'0 0.3
2014-Mar-14 20:33N 59°14' E 006°04'5 5.2
2014-Mar-14 19:33N 59°12' E 005°55'7 3.5
2014-Mar-14 17:32N 59°05' E 005°54'0 0.0
2014-Mar-14 16:32N 59°05' E 005°54'0 0.0
2014-Mar-14 15:34N 59°05' E 005°54'4 3.8
2014-Mar-14 14:34N 59°08' E 005°48'10 9.8
2014-Mar-14 13:33N 59°12' E 005°31'64 4.8
2014-Mar-14 00:13N 60°15' E 005°09'8 8.9
2014-Mar-13 23:20N 60°22' E 005°10'6 8.2
2014-Mar-13 22:33N 60°28' E 005°15'  

Dump ship's entire track history